Paradise, CA

8:18 AM PDT on September 23, 2014 (GMT -0700)
Chico Municipal | Change Station
CLOSE
Current Station
Airport
Location: Chico,
Elevation: 240 ft
Nearby Weather Stations

Elev 240 ft 39.80 °N, 121.86 °W | Updated 28 minutes ago

Mostly Cloudy
Mostly Cloudy
63 °F
Feels Like 63 °F
N
0
Wind Variable Wind from North

Today
High -- | Low -- °F
--% Chance of Precip.
Yesterday
High -- | Low -- °F
Precip. -- in
6:55 AM 7:01 PM
Waning Crescent, 0% visible
Pressure 29.97 in
Visibility 10.0 miles
Clouds Scattered Clouds 2500 ft
Mostly Cloudy 18000 ft
Mostly Cloudy 25000 ft
Dew Point 54 °F
Humidity 72%
Rainfall 0.00 in
Snow Depth 0 in , 0 in , 0 in
UV 0 out of 12
Pollen 6.00 out of 12
Air Quality Not available.
Flu Activity Not available.
METAR KCIC 231450Z 00000KT 10SM SCT025 BKN180 BKN250 17/12 A2997 RMK FU_ALQDS_FU_SCT025

More Conditions Fewer Conditions

Pressure 29.97 in
Visibility 10.0 miles
Clouds Scattered Clouds 2500 ft
Mostly Cloudy 18000 ft
Mostly Cloudy 25000 ft
Dew Point 54 °F
Humidity 72%
Rainfall 0.00 in
Snow Depth 0 in , 0 in , 0 in
UV 0 out of 12
Pollen 6.00 out of 12
Air Quality Not available.
Flu Activity Not available.
METAR KCIC 231450Z 00000KT 10SM SCT025 BKN180 BKN250 17/12 A2997 RMK FU_ALQDS_FU_SCT025

More Conditions Fewer Conditions

10-Day Weather Forecast

Almanac

Astronomy

Sep. 23, 2014 Rise Set
Actual Time 6:55 AM PDT 7:01 PM PDT
Civil Twilight 6:28 AM PDT 7:28 PM PDT
Nautical Twilight 5:56 AM PDT 7:59 PM PDT
Astronomical Twilight 5:24 AM PDT 8:31 PM PDT
Moon 6:24 AM PDT 6:43 PM PDT
Length of Visible Light 13h 00m
Length of Day
12h 06m
Tomorrow will be 2m 36s shorter.
Waning Crescent, 0% of the Moon is Illuminated
Today
Waning Crescent
Sep 24
New
Oct 1
First Quarter
Oct 8
Full
Oct 15
Last Quarter

Today's Extremes

State Highs State Lows

Community

WunderPhotos

Upload Photos

1,755,716 photos uploaded!

Nearby

Snow Depth

Station Depth Elevation
Monitor Pass 0 in 8350 ft
Leavitt Meadows 1 in 7200 ft
Ebbetts Pass 0 in 8700 ft
Heavenly Valley 0 in 8850 ft
Hagan's Meadow 0 in 8000 ft

Earthquake Activity

City Distance Mag. Time & Date
Yountville, California 105 miles 2.6 1:17 PM PDT
2014-09-21
Minimum magnitude displayed is 2.5.

Coastal Water Temperatures

Place Temperature
No Stations Reporting

Nearby Weather Stations